sensor_id;sensor_type;location;lat;lon;timestamp;pressure;altitude;pressure_sealevel;temperature;humidity
61119;BME280;51448;51.660;5.824;2022-11-20T00:01:31;101234.38;;;-2.06;85.83
61119;BME280;51448;51.660;5.824;2022-11-20T00:03:59;101234.25;;;-2.11;85.95
61119;BME280;51448;51.660;5.824;2022-11-20T00:06:28;101231.66;;;-2.11;86.45
61119;BME280;51448;51.660;5.824;2022-11-20T00:08:57;101241.00;;;-2.14;86.40
61119;BME280;51448;51.660;5.824;2022-11-20T00:11:28;101233.13;;;-2.19;86.62
61119;BME280;51448;51.660;5.824;2022-11-20T00:13:58;101232.41;;;-2.15;86.98
61119;BME280;51448;51.660;5.824;2022-11-20T00:16:29;101218.66;;;-2.15;86.78
61119;BME280;51448;51.660;5.824;2022-11-20T00:18:58;101216.81;;;-2.19;86.54
61119;BME280;51448;51.660;5.824;2022-11-20T00:21:27;101224.56;;;-2.18;86.81
61119;BME280;51448;51.660;5.824;2022-11-20T00:23:56;101217.00;;;-2.13;86.70
61119;BME280;51448;51.660;5.824;2022-11-20T00:26:25;101210.16;;;-2.11;86.71
61119;BME280;51448;51.660;5.824;2022-11-20T00:28:57;101212.69;;;-2.13;86.54
61119;BME280;51448;51.660;5.824;2022-11-20T00:31:26;101213.38;;;-2.18;87.01
61119;BME280;51448;51.660;5.824;2022-11-20T00:33:54;101203.00;;;-2.21;86.94
61119;BME280;51448;51.660;5.824;2022-11-20T00:36:24;101214.25;;;-2.18;86.93
61119;BME280;51448;51.660;5.824;2022-11-20T00:38:56;101214.31;;;-2.16;86.56
61119;BME280;51448;51.660;5.824;2022-11-20T00:41:26;101213.31;;;-2.21;86.44
61119;BME280;51448;51.660;5.824;2022-11-20T00:43:56;101207.91;;;-2.29;86.73
61119;BME280;51448;51.660;5.824;2022-11-20T00:46:26;101210.50;;;-2.29;87.31
61119;BME280;51448;51.660;5.824;2022-11-20T00:48:54;101198.59;;;-2.24;86.94
61119;BME280;51448;51.660;5.824;2022-11-20T00:51:23;101204.72;;;-2.20;86.78
61119;BME280;51448;51.660;5.824;2022-11-20T00:53:55;101199.56;;;-2.20;86.73
61119;BME280;51448;51.660;5.824;2022-11-20T00:56:23;101204.53;;;-2.27;86.46
61119;BME280;51448;51.660;5.824;2022-11-20T00:58:50;101195.91;;;-2.29;86.75
61119;BME280;51448;51.660;5.824;2022-11-20T01:01:22;101190.63;;;-2.33;86.88
61119;BME280;51448;51.660;5.824;2022-11-20T01:03:55;101201.72;;;-2.34;87.32
61119;BME280;51448;51.660;5.824;2022-11-20T01:06:26;101201.84;;;-2.31;86.89
61119;BME280;51448;51.660;5.824;2022-11-20T01:08:57;101199.03;;;-2.39;86.70
61119;BME280;51448;51.660;5.824;2022-11-20T01:11:29;101192.81;;;-2.46;86.90
61119;BME280;51448;51.660;5.824;2022-11-20T01:13:59;101189.44;;;-2.43;87.32
61119;BME280;51448;51.660;5.824;2022-11-20T01:16:32;101186.00;;;-2.44;86.90
61119;BME280;51448;51.660;5.824;2022-11-20T01:19:02;101185.16;;;-2.43;87.00
61119;BME280;51448;51.660;5.824;2022-11-20T01:21:37;101179.88;;;-2.47;86.89
61119;BME280;51448;51.660;5.824;2022-11-20T01:24:07;101183.19;;;-2.51;87.54
61119;BME280;51448;51.660;5.824;2022-11-20T01:26:39;101185.72;;;-2.53;87.40
61119;BME280;51448;51.660;5.824;2022-11-20T01:29:13;101176.38;;;-2.49;87.23
61119;BME280;51448;51.660;5.824;2022-11-20T01:31:52;101179.88;;;-2.47;87.40
61119;BME280;51448;51.660;5.824;2022-11-20T01:34:21;101186.88;;;-2.43;87.07
61119;BME280;51448;51.660;5.824;2022-11-20T01:36:50;101185.97;;;-2.45;87.26
61119;BME280;51448;51.660;5.824;2022-11-20T01:39:22;101184.84;;;-2.53;87.23
61119;BME280;51448;51.660;5.824;2022-11-20T01:41:52;101187.38;;;-2.55;87.37
61119;BME280;51448;51.660;5.824;2022-11-20T01:47:25;101192.31;;;-2.61;87.44
61119;BME280;51448;51.660;5.824;2022-11-20T01:50:05;101181.06;;;-2.65;87.57
61119;BME280;51448;51.660;5.824;2022-11-20T01:52:51;101178.34;;;-2.69;87.46
61119;BME280;51448;51.660;5.824;2022-11-20T01:55:32;101176.78;;;-2.64;87.97
61119;BME280;51448;51.660;5.824;2022-11-20T01:58:03;101178.69;;;-2.58;87.59
61119;BME280;51448;51.660;5.824;2022-11-20T02:00:33;101176.88;;;-2.61;87.35
61119;BME280;51448;51.660;5.824;2022-11-20T02:03:03;101174.94;;;-2.68;87.64
61119;BME280;51448;51.660;5.824;2022-11-20T02:05:40;101175.03;;;-2.65;87.94
61119;BME280;51448;51.660;5.824;2022-11-20T02:08:10;101164.72;;;-2.65;87.37
61119;BME280;51448;51.660;5.824;2022-11-20T02:10:37;101164.59;;;-2.70;87.67
61119;BME280;51448;51.660;5.824;2022-11-20T02:13:05;101167.28;;;-2.67;88.14
61119;BME280;51448;51.660;5.824;2022-11-20T02:15:52;101175.94;;;-2.65;88.00
61119;BME280;51448;51.660;5.824;2022-11-20T02:18:20;101173.38;;;-2.63;87.83
61119;BME280;51448;51.660;5.824;2022-11-20T02:21:06;101181.03;;;-2.66;87.60
61119;BME280;51448;51.660;5.824;2022-11-20T02:26:28;101170.41;;;-2.75;87.56
61119;BME280;51448;51.660;5.824;2022-11-20T02:28:59;101166.19;;;-2.73;87.49
61119;BME280;51448;51.660;5.824;2022-11-20T02:31:29;101170.41;;;-2.77;87.40
61119;BME280;51448;51.660;5.824;2022-11-20T02:34:02;101166.00;;;-2.79;87.32
61119;BME280;51448;51.660;5.824;2022-11-20T02:36:30;101165.25;;;-2.77;87.56
61119;BME280;51448;51.660;5.824;2022-11-20T02:39:03;101167.84;;;-2.75;87.63
61119;BME280;51448;51.660;5.824;2022-11-20T02:41:36;101155.56;;;-2.84;87.31
61119;BME280;51448;51.660;5.824;2022-11-20T02:44:05;101164.94;;;-2.86;87.64
61119;BME280;51448;51.660;5.824;2022-11-20T02:46:33;101157.06;;;-2.91;87.89
61119;BME280;51448;51.660;5.824;2022-11-20T02:49:03;101158.63;;;-2.96;87.64
61119;BME280;51448;51.660;5.824;2022-11-20T02:51:32;101163.03;;;-2.92;88.34
61119;BME280;51448;51.660;5.824;2022-11-20T02:53:59;101167.50;;;-2.86;87.86
61119;BME280;51448;51.660;5.824;2022-11-20T02:56:27;101170.94;;;-2.86;88.17
61119;BME280;51448;51.660;5.824;2022-11-20T02:58:55;101168.44;;;-2.84;88.73
61119;BME280;51448;51.660;5.824;2022-11-20T03:01:22;101183.00;;;-2.85;88.27
61119;BME280;51448;51.660;5.824;2022-11-20T03:03:50;101179.41;;;-2.90;88.11
61119;BME280;51448;51.660;5.824;2022-11-20T03:06:17;101183.81;;;-2.87;88.21
61119;BME280;51448;51.660;5.824;2022-11-20T03:08:45;101188.03;;;-2.88;88.06
61119;BME280;51448;51.660;5.824;2022-11-20T03:11:12;101178.47;;;-2.92;88.30
61119;BME280;51448;51.660;5.824;2022-11-20T03:13:39;101183.69;;;-2.90;88.47
61119;BME280;51448;51.660;5.824;2022-11-20T03:16:09;101177.66;;;-2.91;88.71
61119;BME280;51448;51.660;5.824;2022-11-20T03:18:40;101170.00;;;-2.89;88.75
61119;BME280;51448;51.660;5.824;2022-11-20T03:21:10;101171.69;;;-2.90;88.31
61119;BME280;51448;51.660;5.824;2022-11-20T03:23:39;101163.00;;;-2.93;88.76
61119;BME280;51448;51.660;5.824;2022-11-20T03:26:27;101160.56;;;-2.89;88.89
61119;BME280;51448;51.660;5.824;2022-11-20T03:28:57;101155.28;;;-2.93;88.20
61119;BME280;51448;51.660;5.824;2022-11-20T03:31:30;101161.88;;;-3.01;88.55
61119;BME280;51448;51.660;5.824;2022-11-20T03:34:01;101159.19;;;-3.05;88.77
61119;BME280;51448;51.660;5.824;2022-11-20T03:36:30;101160.03;;;-3.06;88.73
61119;BME280;51448;51.660;5.824;2022-11-20T03:38:58;101155.03;;;-3.01;88.86
61119;BME280;51448;51.660;5.824;2022-11-20T03:41:28;101151.72;;;-2.97;88.80
61119;BME280;51448;51.660;5.824;2022-11-20T03:44:02;101155.91;;;-3.00;88.94
61119;BME280;51448;51.660;5.824;2022-11-20T03:46:31;101156.56;;;-3.06;88.33
61119;BME280;51448;51.660;5.824;2022-11-20T03:48:59;101156.56;;;-3.06;88.93
61119;BME280;51448;51.660;5.824;2022-11-20T03:51:29;101155.84;;;-3.02;88.75
61119;BME280;51448;51.660;5.824;2022-11-20T03:54:04;101144.75;;;-3.01;88.88
61119;BME280;51448;51.660;5.824;2022-11-20T03:56:35;101149.78;;;-3.04;88.36
61119;BME280;51448;51.660;5.824;2022-11-20T03:59:05;101147.84;;;-3.11;88.40
61119;BME280;51448;51.660;5.824;2022-11-20T04:01:35;101144.94;;;-3.20;88.58
61119;BME280;51448;51.660;5.824;2022-11-20T04:04:12;101142.19;;;-3.27;88.57
61119;BME280;51448;51.660;5.824;2022-11-20T04:06:40;101135.38;;;-3.25;89.04
61119;BME280;51448;51.660;5.824;2022-11-20T04:09:07;101129.22;;;-3.30;88.96
61119;BME280;51448;51.660;5.824;2022-11-20T04:11:36;101125.63;;;-3.35;89.00
61119;BME280;51448;51.660;5.824;2022-11-20T04:14:13;101129.84;;;-3.37;88.99
61119;BME280;51448;51.660;5.824;2022-11-20T04:16:42;101122.09;;;-3.38;89.57
61119;BME280;51448;51.660;5.824;2022-11-20T04:19:11;101119.34;;;-3.43;89.25
61119;BME280;51448;51.660;5.824;2022-11-20T04:21:41;101114.72;;;-3.53;89.43
61119;BME280;51448;51.660;5.824;2022-11-20T04:24:10;101123.97;;;-3.58;89.92
61119;BME280;51448;51.660;5.824;2022-11-20T04:26:38;101124.97;;;-3.55;89.57
61119;BME280;51448;51.660;5.824;2022-11-20T04:29:06;101123.31;;;-3.53;89.78
61119;BME280;51448;51.660;5.824;2022-11-20T04:31:37;101123.31;;;-3.53;89.91
61119;BME280;51448;51.660;5.824;2022-11-20T04:34:06;101129.34;;;-3.52;89.81
61119;BME280;51448;51.660;5.824;2022-11-20T04:36:34;101125.84;;;-3.54;89.82
61119;BME280;51448;51.660;5.824;2022-11-20T04:39:05;101111.41;;;-3.49;89.70
61119;BME280;51448;51.660;5.824;2022-11-20T04:41:35;101116.56;;;-3.49;89.82
61119;BME280;51448;51.660;5.824;2022-11-20T04:44:05;101112.13;;;-3.53;89.85
61119;BME280;51448;51.660;5.824;2022-11-20T04:46:38;101106.19;;;-3.52;90.15
61119;BME280;51448;51.660;5.824;2022-11-20T04:49:12;101111.47;;;-3.48;89.83
61119;BME280;51448;51.660;5.824;2022-11-20T04:51:40;101104.63;;;-3.47;89.91
61119;BME280;51448;51.660;5.824;2022-11-20T04:54:08;101105.47;;;-3.48;89.83
61119;BME280;51448;51.660;5.824;2022-11-20T04:56:38;101110.81;;;-3.42;90.32
61119;BME280;51448;51.660;5.824;2022-11-20T04:59:05;101105.88;;;-3.36;89.49
61119;BME280;51448;51.660;5.824;2022-11-20T05:01:34;101100.47;;;-3.44;88.80
61119;BME280;51448;51.660;5.824;2022-11-20T05:04:01;101091.53;;;-3.55;88.72
61119;BME280;51448;51.660;5.824;2022-11-20T05:06:29;101104.94;;;-3.64;89.32
61119;BME280;51448;51.660;5.824;2022-11-20T05:08:56;101094.56;;;-3.67;90.01
61119;BME280;51448;51.660;5.824;2022-11-20T05:11:24;101089.47;;;-3.65;90.14
61119;BME280;51448;51.660;5.824;2022-11-20T05:13:52;101094.56;;;-3.67;89.86
61119;BME280;51448;51.660;5.824;2022-11-20T05:16:23;101106.91;;;-3.56;89.82
61119;BME280;51448;51.660;5.824;2022-11-20T05:18:53;101101.78;;;-3.56;89.33
61119;BME280;51448;51.660;5.824;2022-11-20T05:21:21;101097.41;;;-3.59;89.62
61119;BME280;51448;51.660;5.824;2022-11-20T05:23:49;101096.56;;;-3.58;89.25
61119;BME280;51448;51.660;5.824;2022-11-20T05:26:19;101095.78;;;-3.55;89.62
61119;BME280;51448;51.660;5.824;2022-11-20T05:28:49;101085.50;;;-3.55;89.73
61119;BME280;51448;51.660;5.824;2022-11-20T05:31:19;101083.78;;;-3.56;89.90
61119;BME280;51448;51.660;5.824;2022-11-20T05:33:56;101088.28;;;-3.49;89.96
61119;BME280;51448;51.660;5.824;2022-11-20T05:36:24;101082.22;;;-3.51;89.87
61119;BME280;51448;51.660;5.824;2022-11-20T05:38:51;101082.19;;;-3.53;89.38
61119;BME280;51448;51.660;5.824;2022-11-20T05:41:26;101079.44;;;-3.57;89.40
61119;BME280;51448;51.660;5.824;2022-11-20T05:43:53;101079.41;;;-3.59;89.87
61119;BME280;51448;51.660;5.824;2022-11-20T05:46:21;101080.47;;;-3.52;89.68
61119;BME280;51448;51.660;5.824;2022-11-20T05:48:56;101085.63;;;-3.52;89.97
61119;BME280;51448;51.660;5.824;2022-11-20T05:51:26;101088.28;;;-3.49;89.65
61119;BME280;51448;51.660;5.824;2022-11-20T05:53:56;101084.84;;;-3.50;89.55
61119;BME280;51448;51.660;5.824;2022-11-20T05:56:24;101082.13;;;-3.54;89.79
61119;BME280;51448;51.660;5.824;2022-11-20T05:58:51;101086.34;;;-3.56;89.96
61119;BME280;51448;51.660;5.824;2022-11-20T06:01:24;101083.72;;;-3.58;89.56
61119;BME280;51448;51.660;5.824;2022-11-20T06:03:53;101087.41;;;-3.50;89.90
61119;BME280;51448;51.660;5.824;2022-11-20T06:06:21;101089.97;;;-3.50;89.56
61119;BME280;51448;51.660;5.824;2022-11-20T06:08:49;101086.44;;;-3.53;90.26
61119;BME280;51448;51.660;5.824;2022-11-20T06:11:16;101088.97;;;-3.55;89.91
61119;BME280;51448;51.660;5.824;2022-11-20T06:13:44;101090.66;;;-3.55;89.72
61119;BME280;51448;51.660;5.824;2022-11-20T06:16:15;101099.25;;;-3.55;89.95
61119;BME280;51448;51.660;5.824;2022-11-20T06:18:44;101106.00;;;-3.58;89.45
61119;BME280;51448;51.660;5.824;2022-11-20T06:21:17;101111.28;;;-3.54;89.85
61119;BME280;51448;51.660;5.824;2022-11-20T06:23:47;101110.28;;;-3.57;89.32
61119;BME280;51448;51.660;5.824;2022-11-20T06:26:21;101118.63;;;-3.65;89.60
61119;BME280;51448;51.660;5.824;2022-11-20T06:28:50;101105.63;;;-3.69;89.20
61119;BME280;51448;51.660;5.824;2022-11-20T06:31:21;101103.88;;;-3.70;89.40
61119;BME280;51448;51.660;5.824;2022-11-20T06:33:50;101111.50;;;-3.72;89.37
61119;BME280;51448;51.660;5.824;2022-11-20T06:36:20;101106.34;;;-3.73;90.21
61119;BME280;51448;51.660;5.824;2022-11-20T06:38:49;101108.91;;;-3.73;89.89
61119;BME280;51448;51.660;5.824;2022-11-20T06:41:21;101107.28;;;-3.71;89.87
61119;BME280;51448;51.660;5.824;2022-11-20T06:43:49;101109.78;;;-3.73;89.85
61119;BME280;51448;51.660;5.824;2022-11-20T06:46:18;101101.34;;;-3.69;90.06
61119;BME280;51448;51.660;5.824;2022-11-20T06:48:47;101104.78;;;-3.68;89.60
61119;BME280;51448;51.660;5.824;2022-11-20T06:51:15;101101.22;;;-3.72;89.37
61119;BME280;51448;51.660;5.824;2022-11-20T06:53:43;101100.38;;;-3.72;89.61
61119;BME280;51448;51.660;5.824;2022-11-20T06:56:11;101105.56;;;-3.71;89.48
61119;BME280;51448;51.660;5.824;2022-11-20T06:58:38;101097.19;;;-3.65;90.10
61119;BME280;51448;51.660;5.824;2022-11-20T07:01:08;101096.63;;;-3.56;89.95
61119;BME280;51448;51.660;5.824;2022-11-20T07:03:39;101094.84;;;-3.57;89.37
61119;BME280;51448;51.660;5.824;2022-11-20T07:06:08;101106.75;;;-3.61;89.62
61119;BME280;51448;51.660;5.824;2022-11-20T07:08:36;101104.94;;;-3.64;89.32
61119;BME280;51448;51.660;5.824;2022-11-20T07:11:05;101108.34;;;-3.65;90.06
61119;BME280;51448;51.660;5.824;2022-11-20T07:13:34;101090.50;;;-3.60;90.28
61119;BME280;51448;51.660;5.824;2022-11-20T07:16:06;101100.22;;;-3.51;89.88
61119;BME280;51448;51.660;5.824;2022-11-20T07:18:35;101090.75;;;-3.52;89.98
61119;BME280;51448;51.660;5.824;2022-11-20T07:21:04;101099.19;;;-3.56;89.75
61119;BME280;51448;51.660;5.824;2022-11-20T07:23:34;101100.84;;;-3.58;89.88
61119;BME280;51448;51.660;5.824;2022-11-20T07:26:03;101099.19;;;-3.56;90.05
61119;BME280;51448;51.660;5.824;2022-11-20T07:28:35;101091.47;;;-3.56;90.30
61119;BME280;51448;51.660;5.824;2022-11-20T07:31:03;101094.97;;;-3.54;89.92
61119;BME280;51448;51.660;5.824;2022-11-20T07:33:32;101097.63;;;-3.53;90.04
61119;BME280;51448;51.660;5.824;2022-11-20T07:35:59;101089.19;;;-3.47;89.61
61119;BME280;51448;51.660;5.824;2022-11-20T07:38:27;101090.03;;;-3.48;89.38
61119;BME280;51448;51.660;5.824;2022-11-20T07:40:58;101095.97;;;-3.51;89.65
61119;BME280;51448;51.660;5.824;2022-11-20T07:43:28;101100.31;;;-3.48;89.85
61119;BME280;51448;51.660;5.824;2022-11-20T07:45:58;101100.28;;;-3.50;90.41
61119;BME280;51448;51.660;5.824;2022-11-20T07:48:25;101096.97;;;-3.46;90.17
61119;BME280;51448;51.660;5.824;2022-11-20T07:50:56;101103.25;;;-3.37;90.40
61119;BME280;51448;51.660;5.824;2022-11-20T07:53:24;101101.72;;;-3.32;90.35
61119;BME280;51448;51.660;5.824;2022-11-20T07:55:51;101095.31;;;-3.18;90.87
61119;BME280;51448;51.660;5.824;2022-11-20T07:58:20;101099.00;;;-3.10;90.03
61119;BME280;51448;51.660;5.824;2022-11-20T08:00:48;101101.72;;;-3.05;90.07
61119;BME280;51448;51.660;5.824;2022-11-20T08:03:16;101093.41;;;-2.96;90.43
61119;BME280;51448;51.660;5.824;2022-11-20T08:05:50;101084.31;;;-2.85;90.39
61119;BME280;51448;51.660;5.824;2022-11-20T08:08:18;101092.44;;;-2.71;90.36
61119;BME280;51448;51.660;5.824;2022-11-20T08:10:46;101092.63;;;-2.65;90.21
61119;BME280;51448;51.660;5.824;2022-11-20T08:13:13;101100.47;;;-2.62;89.95
61119;BME280;51448;51.660;5.824;2022-11-20T08:15:59;101098.13;;;-2.53;90.46
61119;BME280;51448;51.660;5.824;2022-11-20T08:18:27;101101.81;;;-2.45;90.16
61119;BME280;51448;51.660;5.824;2022-11-20T08:21:03;101096.78;;;-2.41;90.31
61119;BME280;51448;51.660;5.824;2022-11-20T08:23:31;101090.19;;;-2.30;90.71
61119;BME280;51448;51.660;5.824;2022-11-20T08:25:58;101092.31;;;-2.17;90.49
61119;BME280;51448;51.660;5.824;2022-11-20T08:28:26;101087.41;;;-2.08;90.30
61119;BME280;51448;51.660;5.824;2022-11-20T08:30:59;101081.47;;;-2.05;90.39
61119;BME280;51448;51.660;5.824;2022-11-20T08:33:27;101071.22;;;-2.02;90.68
61119;BME280;51448;51.660;5.824;2022-11-20T08:36:02;101077.41;;;-1.95;90.84
61119;BME280;51448;51.660;5.824;2022-11-20T08:38:31;101070.59;;;-1.93;91.10
61119;BME280;51448;51.660;5.824;2022-11-20T08:41:01;101071.56;;;-1.90;91.18
61119;BME280;51448;51.660;5.824;2022-11-20T08:43:49;101069.19;;;-1.82;91.39
61119;BME280;51448;51.660;5.824;2022-11-20T08:46:17;101071.22;;;-1.70;91.76
61119;BME280;51448;51.660;5.824;2022-11-20T08:48:45;101066.34;;;-1.59;91.53
61119;BME280;51448;51.660;5.824;2022-11-20T08:51:13;101074.28;;;-1.50;91.41
61119;BME280;51448;51.660;5.824;2022-11-20T08:53:41;101071.94;;;-1.41;91.79
61119;BME280;51448;51.660;5.824;2022-11-20T08:56:08;101075.59;;;-1.33;91.61
61119;BME280;51448;51.660;5.824;2022-11-20T08:58:37;101071.34;;;-1.31;91.74
61119;BME280;51448;51.660;5.824;2022-11-20T09:01:26;101071.28;;;-1.32;91.49
61119;BME280;51448;51.660;5.824;2022-11-20T09:03:57;101067.03;;;-1.30;92.20
61119;BME280;51448;51.660;5.824;2022-11-20T09:06:26;101060.28;;;-1.25;92.02
61119;BME280;51448;51.660;5.824;2022-11-20T09:08:54;101060.44;;;-1.17;92.12
61119;BME280;51448;51.660;5.824;2022-11-20T09:11:22;101061.50;;;-1.11;92.32
61119;BME280;51448;51.660;5.824;2022-11-20T09:13:49;101060.75;;;-1.05;92.26
61119;BME280;51448;51.660;5.824;2022-11-20T09:16:17;101061.72;;;-1.00;92.57
61119;BME280;51448;51.660;5.824;2022-11-20T09:18:45;101061.91;;;-0.91;92.71
61119;BME280;51448;51.660;5.824;2022-11-20T09:21:13;101060.50;;;-0.78;92.75
61119;BME280;51448;51.660;5.824;2022-11-20T09:23:41;101047.72;;;-0.70;92.69
61119;BME280;51448;51.660;5.824;2022-11-20T09:26:13;101047.84;;;-0.64;92.28
61119;BME280;51448;51.660;5.824;2022-11-20T09:28:41;101048.00;;;-0.58;92.32
61119;BME280;51448;51.660;5.824;2022-11-20T09:31:18;101048.06;;;-0.55;92.39
61119;BME280;51448;51.660;5.824;2022-11-20T09:33:50;101039.47;;;-0.54;92.51
61119;BME280;51448;51.660;5.824;2022-11-20T09:36:17;101048.19;;;-0.49;92.73
61119;BME280;51448;51.660;5.824;2022-11-20T09:38:46;101037.16;;;-0.40;93.02
61119;BME280;51448;51.660;5.824;2022-11-20T09:41:39;101035.69;;;-0.27;92.77
61119;BME280;51448;51.660;5.824;2022-11-20T09:44:43;101032.44;;;-0.17;93.25
61119;BME280;51448;51.660;5.824;2022-11-20T09:47:37;101031.75;;;-0.07;92.96
61119;BME280;51448;51.660;5.824;2022-11-20T09:51:09;101026.81;;;0.06;93.27
61119;BME280;51448;51.660;5.824;2022-11-20T09:56:34;101027.94;;;0.20;92.69
61119;BME280;51448;51.660;5.824;2022-11-20T09:59:18;101018.59;;;0.27;92.63
61119;BME280;51448;51.660;5.824;2022-11-20T10:01:56;101026.44;;;0.33;92.49
61119;BME280;51448;51.660;5.824;2022-11-20T10:04:25;101024.81;;;0.39;93.04
61119;BME280;51448;51.660;5.824;2022-11-20T10:07:13;101020.66;;;0.48;93.13
61119;BME280;51448;51.660;5.824;2022-11-20T10:09:59;101021.63;;;0.56;92.55
61119;BME280;51448;51.660;5.824;2022-11-20T10:12:48;101020.88;;;0.63;92.53
61119;BME280;51448;51.660;5.824;2022-11-20T10:21:03;101004.81;;;0.84;93.02
61119;BME280;51448;51.660;5.824;2022-11-20T10:24:16;100991.94;;;0.92;93.22
61119;BME280;51448;51.660;5.824;2022-11-20T10:27:32;100985.19;;;1.02;92.78
61119;BME280;51448;51.660;5.824;2022-11-20T10:30:15;100981.81;;;1.07;92.65
61119;BME280;51448;51.660;5.824;2022-11-20T10:32:52;100987.09;;;1.15;93.16
61119;BME280;51448;51.660;5.824;2022-11-20T10:35:35;100975.03;;;1.18;92.75
61119;BME280;51448;51.660;5.824;2022-11-20T10:38:18;100964.66;;;1.18;92.42
61119;BME280;51448;51.660;5.824;2022-11-20T10:40:55;100957.78;;;1.20;92.64
61119;BME280;51448;51.660;5.824;2022-11-20T10:43:46;100949.19;;;1.25;93.00
61119;BME280;51448;51.660;5.824;2022-11-20T10:46:22;100950.97;;;1.29;92.94
61119;BME280;51448;51.660;5.824;2022-11-20T10:48:51;100938.06;;;1.32;92.93
61119;BME280;51448;51.660;5.824;2022-11-20T10:54:22;100931.28;;;1.43;93.12
61119;BME280;51448;51.660;5.824;2022-11-20T10:57:23;100920.94;;;1.46;93.07
61119;BME280;51448;51.660;5.824;2022-11-20T11:00:06;100910.59;;;1.49;92.78
61119;BME280;51448;51.660;5.824;2022-11-20T11:02:47;100916.66;;;1.51;93.60
61119;BME280;51448;51.660;5.824;2022-11-20T11:07:54;100899.47;;;1.59;93.08
61119;BME280;51448;51.660;5.824;2022-11-20T11:10:28;100887.44;;;1.65;93.23
61119;BME280;51448;51.660;5.824;2022-11-20T11:13:03;100884.88;;;1.69;93.50
61119;BME280;51448;51.660;5.824;2022-11-20T11:15:38;100890.97;;;1.76;93.86
61119;BME280;51448;51.660;5.824;2022-11-20T11:18:11;100893.63;;;1.80;93.88
61119;BME280;51448;51.660;5.824;2022-11-20T11:20:38;100873.78;;;1.86;93.93
61119;BME280;51448;51.660;5.824;2022-11-20T11:23:26;100875.56;;;1.94;93.62
61119;BME280;51448;51.660;5.824;2022-11-20T11:25:57;100865.22;;;1.97;93.52
61119;BME280;51448;51.660;5.824;2022-11-20T11:28:29;100864.41;;;2.03;93.72
61119;BME280;51448;51.660;5.824;2022-11-20T11:30:56;100861.00;;;2.10;93.77
61119;BME280;51448;51.660;5.824;2022-11-20T11:33:26;100863.66;;;2.18;94.05
61119;BME280;51448;51.660;5.824;2022-11-20T11:35:58;100849.00;;;2.26;93.83
61119;BME280;51448;51.660;5.824;2022-11-20T11:38:38;100849.91;;;2.34;93.88
61119;BME280;51448;51.660;5.824;2022-11-20T11:41:14;100853.41;;;2.38;93.84
61119;BME280;51448;51.660;5.824;2022-11-20T11:43:56;100854.25;;;2.41;94.01
61119;BME280;51448;51.660;5.824;2022-11-20T11:47:02;100856.00;;;2.41;93.61
61119;BME280;51448;51.660;5.824;2022-11-20T11:49:33;100847.38;;;2.45;94.00
61119;BME280;51448;51.660;5.824;2022-11-20T11:52:13;100845.66;;;2.47;93.76
61119;BME280;51448;51.660;5.824;2022-11-20T11:54:55;100844.78;;;2.50;93.50
61119;BME280;51448;51.660;5.824;2022-11-20T11:57:47;100843.94;;;2.49;93.93
61119;BME280;51448;51.660;5.824;2022-11-20T12:00:24;100843.91;;;2.48;93.89
61119;BME280;51448;51.660;5.824;2022-11-20T12:03:05;100838.75;;;2.51;94.50
61119;BME280;51448;51.660;5.824;2022-11-20T12:06:01;100837.03;;;2.53;94.58
61119;BME280;51448;51.660;5.824;2022-11-20T12:09:03;100830.13;;;2.55;94.49
61119;BME280;51448;51.660;5.824;2022-11-20T12:11:55;100818.88;;;2.54;94.43
61119;BME280;51448;51.660;5.824;2022-11-20T12:14:43;100815.41;;;2.57;95.01
61119;BME280;51448;51.660;5.824;2022-11-20T12:17:29;100802.44;;;2.58;94.87
61119;BME280;51448;51.660;5.824;2022-11-20T12:20:15;100788.59;;;2.61;95.17
61119;BME280;51448;51.660;5.824;2022-11-20T12:23:18;100792.94;;;2.65;95.41
61119;BME280;51448;51.660;5.824;2022-11-20T12:26:34;100779.94;;;2.68;95.45
61119;BME280;51448;51.660;5.824;2022-11-20T12:39:07;100759.22;;;2.84;95.79
61119;BME280;51448;51.660;5.824;2022-11-20T12:45:20;100731.53;;;2.87;96.22
61119;BME280;51448;51.660;5.824;2022-11-20T12:54:59;100723.75;;;2.92;96.50
61119;BME280;51448;51.660;5.824;2022-11-20T12:58:17;100709.00;;;2.91;96.56
61119;BME280;51448;51.660;5.824;2022-11-20T13:01:55;100697.75;;;2.90;96.79
61119;BME280;51448;51.660;5.824;2022-11-20T13:09:16;100695.16;;;2.90;96.89
61119;BME280;51448;51.660;5.824;2022-11-20T13:21:38;100676.13;;;3.02;97.68
61119;BME280;51448;51.660;5.824;2022-11-20T13:24:54;100670.06;;;3.06;97.43
61119;BME280;51448;51.660;5.824;2022-11-20T13:27:58;100655.34;;;3.10;97.15
61119;BME280;51448;51.660;5.824;2022-11-20T13:30:57;100649.25;;;3.15;97.38
61119;BME280;51448;51.660;5.824;2022-11-20T13:34:11;100647.53;;;3.17;97.72
61119;BME280;51448;51.660;5.824;2022-11-20T13:36:59;100638.00;;;3.21;97.79
61119;BME280;51448;51.660;5.824;2022-11-20T13:43:41;100617.19;;;3.29;97.79
61119;BME280;51448;51.660;5.824;2022-11-20T13:46:58;100619.81;;;3.29;97.94
61119;BME280;51448;51.660;5.824;2022-11-20T13:49:57;100613.72;;;3.31;98.24
61119;BME280;51448;51.660;5.824;2022-11-20T14:02:14;100579.94;;;3.33;99.04
61119;BME280;51448;51.660;5.824;2022-11-20T14:04:47;100579.94;;;3.33;98.45
61119;BME280;51448;51.660;5.824;2022-11-20T14:07:19;100586.00;;;3.33;99.06
61119;BME280;51448;51.660;5.824;2022-11-20T14:09:54;100581.66;;;3.34;98.79
61119;BME280;51448;51.660;5.824;2022-11-20T14:12:32;100571.25;;;3.37;99.58
61119;BME280;51448;51.660;5.824;2022-11-20T14:15:00;100564.31;;;3.36;99.35
61119;BME280;51448;51.660;5.824;2022-11-20T14:20:00;100546.13;;;3.39;99.65
61119;BME280;51448;51.660;5.824;2022-11-20T14:22:32;100548.72;;;3.39;99.79
61119;BME280;51448;51.660;5.824;2022-11-20T14:27:41;100539.19;;;3.42;99.67
61119;BME280;51448;51.660;5.824;2022-11-20T14:30:16;100546.09;;;3.45;100.00
61119;BME280;51448;51.660;5.824;2022-11-20T14:32:46;100541.75;;;3.47;100.00
61119;BME280;51448;51.660;5.824;2022-11-20T14:37:56;100523.56;;;3.47;100.00
61119;BME280;51448;51.660;5.824;2022-11-20T14:40:35;100518.34;;;3.47;100.00
61119;BME280;51448;51.660;5.824;2022-11-20T14:43:23;100514.88;;;3.48;100.00
61119;BME280;51448;51.660;5.824;2022-11-20T14:45:57;100519.22;;;3.49;100.00